createdAt,value
2022-09-24T00:00:01.219Z,39.80
2022-09-24T00:02:29.417Z,40.00
2022-09-24T00:04:58.494Z,40.10
2022-09-24T00:07:26.686Z,39.90
2022-09-24T00:09:56.195Z,40.40
2022-09-24T00:12:28.073Z,40.20
2022-09-24T00:14:56.325Z,40.10
2022-09-24T00:17:26.283Z,40.00
2022-09-24T00:19:54.668Z,40.00
2022-09-24T00:22:23.825Z,40.20
2022-09-24T00:25:10.941Z,40.40
2022-09-24T00:27:40.862Z,40.40
2022-09-24T00:30:11.028Z,40.20
2022-09-24T00:32:39.202Z,40.40
2022-09-24T00:35:07.892Z,40.40
2022-09-24T00:37:36.619Z,40.60
2022-09-24T00:40:08.086Z,40.60
2022-09-24T00:42:36.356Z,40.60
2022-09-24T00:45:06.591Z,40.30
2022-09-24T00:47:39.644Z,40.70
2022-09-24T00:50:16.448Z,40.70
2022-09-24T00:52:49.321Z,40.50
2022-09-24T00:55:20.033Z,40.80
2022-09-24T00:57:50.339Z,40.90
2022-09-24T01:00:21.936Z,40.50
2022-09-24T01:02:55.217Z,40.60
2022-09-24T01:05:23.603Z,41.10
2022-09-24T01:07:52.309Z,41.00
2022-09-24T01:10:40.401Z,40.60
2022-09-24T01:13:19.786Z,40.70
2022-09-24T01:15:56.470Z,40.70
2022-09-24T01:18:34.138Z,40.80
2022-09-24T01:21:20.460Z,40.40
2022-09-24T01:24:21.056Z,40.80
2022-09-24T01:27:00.074Z,40.80
2022-09-24T01:29:41.841Z,41.10
2022-09-24T01:32:18.493Z,40.80
2022-09-24T01:34:51.099Z,41.00
2022-09-24T01:37:24.235Z,40.80
2022-09-24T01:39:55.508Z,40.80
2022-09-24T01:42:27.019Z,41.00
2022-09-24T01:44:58.285Z,41.20
2022-09-24T01:47:34.535Z,41.20
2022-09-24T01:50:05.810Z,40.80
2022-09-24T01:52:41.678Z,41.00
2022-09-24T01:55:14.173Z,41.00
2022-09-24T01:57:47.197Z,41.20
2022-09-24T02:00:19.902Z,40.90
2022-09-24T02:02:53.886Z,40.90
2022-09-24T02:05:30.190Z,41.40
2022-09-24T02:08:06.235Z,41.20
2022-09-24T02:10:41.049Z,41.00
2022-09-24T02:13:14.072Z,41.40
2022-09-24T02:15:48.059Z,41.30
2022-09-24T02:18:21.037Z,41.30
2022-09-24T02:20:52.454Z,41.40
2022-09-24T02:23:22.485Z,41.40
2022-09-24T02:25:54.931Z,41.50
2022-09-24T02:28:24.632Z,41.20
2022-09-24T02:31:00.104Z,41.60
2022-09-24T02:33:48.451Z,41.60
2022-09-24T02:36:18.179Z,41.60
2022-09-24T02:38:48.604Z,41.70
2022-09-24T02:41:16.931Z,41.70
2022-09-24T02:43:45.298Z,42.00
2022-09-24T02:46:14.906Z,41.90
2022-09-24T02:48:43.123Z,41.90
2022-09-24T02:51:11.934Z,41.90
2022-09-24T02:53:40.123Z,41.70
2022-09-24T02:56:11.395Z,41.90
2022-09-24T02:58:39.817Z,41.70
2022-09-24T03:01:10.362Z,41.70
2022-09-24T03:03:40.300Z,41.90
2022-09-24T03:06:09.325Z,42.30
2022-09-24T03:08:37.646Z,42.40
2022-09-24T03:11:06.631Z,42.30
2022-09-24T03:13:35.498Z,41.80
2022-09-24T03:16:03.967Z,42.00
2022-09-24T03:18:32.460Z,42.30
2022-09-24T03:21:04.532Z,42.00
2022-09-24T03:23:32.870Z,42.20
2022-09-24T03:26:01.140Z,42.00
2022-09-24T03:28:30.186Z,42.30
2022-09-24T03:31:00.691Z,42.70
2022-09-24T03:33:33.189Z,42.70
2022-09-24T03:36:04.968Z,43.00
2022-09-24T03:38:34.876Z,43.10
2022-09-24T03:41:04.496Z,42.70
2022-09-24T03:43:33.569Z,42.40
2022-09-24T03:46:02.313Z,42.60
2022-09-24T03:48:31.078Z,42.90
2022-09-24T03:51:03.625Z,43.30
2022-09-24T03:53:33.805Z,43.20
2022-09-24T03:56:03.762Z,43.40
2022-09-24T03:58:32.627Z,43.40
2022-09-24T04:01:01.086Z,43.40
2022-09-24T04:03:29.326Z,43.60
2022-09-24T04:05:57.633Z,43.10
2022-09-24T04:08:26.001Z,43.40
2022-09-24T04:10:56.479Z,43.10
2022-09-24T04:13:25.151Z,43.20
2022-09-24T04:15:53.761Z,42.90
2022-09-24T04:18:22.549Z,42.90
2022-09-24T04:20:50.993Z,43.30
2022-09-24T04:23:19.752Z,42.90
2022-09-24T04:25:48.169Z,43.10
2022-09-24T04:28:17.908Z,43.00
2022-09-24T04:30:46.349Z,42.90
2022-09-24T04:33:15.254Z,43.30
2022-09-24T04:35:43.438Z,42.80
2022-09-24T04:38:11.761Z,43.10
2022-09-24T04:40:40.020Z,43.10
2022-09-24T04:43:08.552Z,43.40
2022-09-24T04:45:38.629Z,43.60
2022-09-24T04:48:06.933Z,43.40
2022-09-24T04:50:35.239Z,43.90
2022-09-24T04:53:03.531Z,43.80
2022-09-24T04:55:32.577Z,43.70
2022-09-24T04:58:00.826Z,43.70
2022-09-24T05:00:31.760Z,43.50
2022-09-24T05:03:04.187Z,43.60
2022-09-24T05:05:32.689Z,43.80
2022-09-24T05:08:01.627Z,43.40
2022-09-24T05:10:33.437Z,43.50
2022-09-24T05:13:02.276Z,43.30
2022-09-24T05:15:30.718Z,43.40
2022-09-24T05:17:59.061Z,43.20
2022-09-24T05:20:28.861Z,43.50
2022-09-24T05:22:57.468Z,43.40
2022-09-24T05:25:25.945Z,43.60
2022-09-24T05:27:55.052Z,43.50
2022-09-24T05:30:26.347Z,43.70
2022-09-24T05:32:54.578Z,43.50
2022-09-24T05:35:24.690Z,43.80
2022-09-24T05:37:55.754Z,44.00
2022-09-24T05:40:47.002Z,44.00
2022-09-24T05:43:17.910Z,43.40
2022-09-24T05:45:47.492Z,43.60
2022-09-24T05:48:15.975Z,43.90
2022-09-24T05:50:44.139Z,43.90
2022-09-24T05:53:13.931Z,43.80
2022-09-24T05:55:43.979Z,43.90
2022-09-24T05:58:14.319Z,44.20
2022-09-24T06:00:42.445Z,44.10
2022-09-24T06:03:14.131Z,44.20
2022-09-24T06:05:46.117Z,44.10
2022-09-24T06:08:16.432Z,44.00
2022-09-24T06:10:47.259Z,44.00
2022-09-24T06:13:19.331Z,43.90
2022-09-24T06:15:48.801Z,43.90
2022-09-24T06:18:17.692Z,43.90
2022-09-24T06:20:46.978Z,44.10
2022-09-24T06:23:19.023Z,44.40
2022-09-24T06:25:50.489Z,44.20
2022-09-24T06:28:21.061Z,44.10
2022-09-24T06:30:49.284Z,44.10
2022-09-24T06:33:17.763Z,44.40
2022-09-24T06:35:46.739Z,44.00
2022-09-24T06:38:19.007Z,44.30
2022-09-24T06:40:49.839Z,44.10
2022-09-24T06:43:21.049Z,44.30
2022-09-24T06:45:49.913Z,44.20
2022-09-24T06:48:18.904Z,44.10
2022-09-24T06:50:48.123Z,43.90
2022-09-24T06:53:18.545Z,44.10
2022-09-24T06:55:48.923Z,43.80
2022-09-24T06:58:20.180Z,43.80
2022-09-24T07:00:54.290Z,43.80
2022-09-24T07:03:22.930Z,43.90
2022-09-24T07:05:51.480Z,43.60
2022-09-24T07:08:22.907Z,43.70
2022-09-24T07:10:52.602Z,43.50
2022-09-24T07:13:22.226Z,43.40
2022-09-24T07:15:52.807Z,43.40
2022-09-24T07:18:22.443Z,42.10
2022-09-24T07:20:56.276Z,41.90
2022-09-24T07:23:27.834Z,42.00
2022-09-24T07:25:57.595Z,41.90
2022-09-24T07:28:26.522Z,41.70
2022-09-24T07:30:59.485Z,41.50
2022-09-24T07:33:28.247Z,42.00
2022-09-24T07:35:56.589Z,41.60
2022-09-24T07:38:27.139Z,41.80
2022-09-24T07:40:59.520Z,41.70
2022-09-24T07:43:33.314Z,41.70
2022-09-24T07:46:01.880Z,41.90
2022-09-24T07:48:30.364Z,41.70
2022-09-24T07:50:58.720Z,41.80
2022-09-24T07:53:28.646Z,41.90
2022-09-24T07:56:00.578Z,41.70
2022-09-24T07:58:30.114Z,41.70
2022-09-24T08:01:02.068Z,41.80
2022-09-24T08:03:30.568Z,41.70
2022-09-24T08:06:01.833Z,41.70
2022-09-24T08:08:31.473Z,41.60
2022-09-24T08:11:07.311Z,41.60
2022-09-24T08:13:39.141Z,41.40
2022-09-24T08:16:09.332Z,41.20
2022-09-24T08:18:37.827Z,40.90
2022-09-24T08:21:09.322Z,41.30
2022-09-24T08:23:40.650Z,41.00
2022-09-24T08:26:10.708Z,39.30
2022-09-24T08:28:40.579Z,38.40
2022-09-24T08:31:12.149Z,38.60
2022-09-24T08:33:41.151Z,38.60
2022-09-24T08:36:11.274Z,38.80
2022-09-24T08:38:41.084Z,38.70
2022-09-24T08:41:25.923Z,38.60
2022-09-24T08:44:01.520Z,38.50
2022-09-24T08:46:55.004Z,38.50
2022-09-24T08:49:30.028Z,38.40
2022-09-24T08:52:06.091Z,38.60
2022-09-24T08:54:37.731Z,38.50
2022-09-24T08:57:13.010Z,38.50
2022-09-24T08:59:44.335Z,38.40
2022-09-24T09:02:25.543Z,38.10
2022-09-24T09:05:03.305Z,38.20
2022-09-24T09:07:36.027Z,38.40
2022-09-24T09:10:10.715Z,37.80
2022-09-24T09:12:42.053Z,37.70
2022-09-24T09:15:15.516Z,37.70
2022-09-24T09:17:48.287Z,37.70
2022-09-24T09:20:20.528Z,38.00
2022-09-24T09:22:51.302Z,38.10
2022-09-24T09:25:27.269Z,37.60
2022-09-24T09:28:01.887Z,37.40
2022-09-24T09:30:34.691Z,37.40
2022-09-24T09:33:25.317Z,36.50
2022-09-24T09:36:03.326Z,35.90
2022-09-24T09:38:40.741Z,35.10
2022-09-24T09:41:21.519Z,35.60
2022-09-24T09:43:50.730Z,35.70
2022-09-24T09:46:25.557Z,34.80
2022-09-24T09:48:59.259Z,33.70
2022-09-24T09:51:37.300Z,33.50
2022-09-24T09:54:06.344Z,33.30
2022-09-24T09:56:39.349Z,32.90
2022-09-24T09:59:09.972Z,32.90
2022-09-24T10:01:41.732Z,32.60
2022-09-24T10:04:28.254Z,31.40
2022-09-24T10:07:06.097Z,30.70
2022-09-24T10:09:34.818Z,31.50
2022-09-24T10:12:21.388Z,31.00
2022-09-24T10:15:01.908Z,31.00
2022-09-24T10:17:36.735Z,31.30
2022-09-24T10:20:10.935Z,31.00
2022-09-24T10:22:40.182Z,30.90
2022-09-24T10:25:20.403Z,29.80
2022-09-24T10:27:49.964Z,30.00
2022-09-24T10:30:36.234Z,29.30
2022-09-24T10:33:08.784Z,29.40
2022-09-24T10:35:38.746Z,30.30
2022-09-24T10:38:18.003Z,31.00
2022-09-24T10:40:47.415Z,30.80
2022-09-24T10:43:21.384Z,31.50
2022-09-24T10:46:13.118Z,31.30
2022-09-24T10:48:45.617Z,31.20
2022-09-24T10:51:32.523Z,31.30
2022-09-24T10:54:16.673Z,30.60
2022-09-24T10:56:49.677Z,30.90
2022-09-24T10:59:51.291Z,31.20
2022-09-24T11:02:48.914Z,31.20
2022-09-24T11:05:22.382Z,31.00
2022-09-24T11:08:05.203Z,30.30
2022-09-24T11:11:00.820Z,29.60
2022-09-24T11:13:40.467Z,30.20
2022-09-24T11:16:40.042Z,30.40
2022-09-24T11:19:20.241Z,29.60
2022-09-24T11:22:02.069Z,29.40
2022-09-24T11:24:52.848Z,29.00
2022-09-24T11:27:40.043Z,27.70
2022-09-24T11:30:13.113Z,26.60
2022-09-24T11:32:56.315Z,27.10
2022-09-24T11:35:45.924Z,28.40
2022-09-24T11:38:19.326Z,28.70
2022-09-24T11:41:00.329Z,28.90
2022-09-24T11:43:55.329Z,29.00
2022-09-24T11:46:36.592Z,28.10
2022-09-24T11:49:24.165Z,28.00
2022-09-24T11:52:01.484Z,28.20
2022-09-24T11:54:36.278Z,27.40
2022-09-24T11:57:10.908Z,28.70
2022-09-24T11:59:48.776Z,26.50
2022-09-24T12:02:23.823Z,26.30
2022-09-24T12:05:23.860Z,26.60
2022-09-24T12:07:57.862Z,26.20
2022-09-24T12:10:32.883Z,25.00
2022-09-24T12:13:12.365Z,25.70
2022-09-24T12:15:48.447Z,26.50
2022-09-24T12:18:22.317Z,25.20
2022-09-24T12:21:04.612Z,25.50
2022-09-24T12:23:39.142Z,26.00
2022-09-24T12:26:09.038Z,25.80
2022-09-24T12:29:01.477Z,25.90
2022-09-24T12:31:58.468Z,25.60
2022-09-24T12:34:35.628Z,26.20
2022-09-24T12:37:09.552Z,26.20
2022-09-24T12:39:46.417Z,25.80
2022-09-24T12:42:16.631Z,24.70
2022-09-24T12:44:47.558Z,23.90
2022-09-24T12:47:21.143Z,24.50
2022-09-24T12:49:55.287Z,25.00
2022-09-24T12:52:34.869Z,25.30
2022-09-24T12:55:05.142Z,25.00
2022-09-24T12:57:37.143Z,25.00
2022-09-24T13:00:26.979Z,24.40
2022-09-24T13:02:56.483Z,25.00
2022-09-24T13:05:30.200Z,23.60
2022-09-24T13:08:05.043Z,24.20
2022-09-24T13:10:35.594Z,24.40
2022-09-24T13:13:22.243Z,24.10
2022-09-24T13:16:00.939Z,23.40
2022-09-24T13:18:31.192Z,23.50
2022-09-24T13:21:02.728Z,23.40
2022-09-24T13:23:47.274Z,23.00
2022-09-24T13:26:33.690Z,23.80
2022-09-24T13:29:03.521Z,23.50
2022-09-24T13:31:47.744Z,23.20
2022-09-24T13:34:21.466Z,23.10
2022-09-24T13:36:57.528Z,23.20
2022-09-24T13:39:34.623Z,22.80
2022-09-24T13:42:08.835Z,22.70
2022-09-24T13:44:40.511Z,23.10
2022-09-24T13:47:15.599Z,23.50
2022-09-24T13:49:47.270Z,22.90
2022-09-24T13:52:25.772Z,22.60
2022-09-24T13:54:59.163Z,21.80
2022-09-24T13:57:29.164Z,21.40
2022-09-24T14:00:14.486Z,21.80
2022-09-24T14:02:47.253Z,23.10
2022-09-24T14:05:22.708Z,23.30
2022-09-24T14:08:06.348Z,23.60
2022-09-24T14:10:36.549Z,22.50
2022-09-24T14:13:17.687Z,22.10
2022-09-24T14:15:57.523Z,21.60
2022-09-24T14:18:28.243Z,21.90
2022-09-24T14:20:59.728Z,22.30
2022-09-24T14:23:33.050Z,22.90
2022-09-24T14:26:04.613Z,23.50
2022-09-24T14:28:35.440Z,22.70
2022-09-24T14:31:08.731Z,22.90
2022-09-24T14:33:39.858Z,22.90
2022-09-24T14:36:13.758Z,22.90
2022-09-24T14:38:54.181Z,22.70
2022-09-24T14:41:27.031Z,22.30
2022-09-24T14:43:58.098Z,22.50
2022-09-24T14:46:29.837Z,22.80
2022-09-24T14:49:06.455Z,23.20
2022-09-24T14:51:36.644Z,23.20
2022-09-24T14:54:21.336Z,23.20
2022-09-24T14:56:50.819Z,23.50
2022-09-24T14:59:30.007Z,23.40
2022-09-24T15:02:15.605Z,22.90
2022-09-24T15:04:47.416Z,23.60
2022-09-24T15:07:18.878Z,24.00
2022-09-24T15:09:51.747Z,24.40
2022-09-24T15:12:26.589Z,24.60
2022-09-24T15:14:56.956Z,23.40
2022-09-24T15:17:30.949Z,24.00
2022-09-24T15:19:59.549Z,23.90
2022-09-24T15:22:28.912Z,23.60
2022-09-24T15:25:01.523Z,23.80
2022-09-24T15:27:33.582Z,23.50
2022-09-24T15:30:04.721Z,24.10
2022-09-24T15:32:35.232Z,24.10
2022-09-24T15:35:08.423Z,24.50
2022-09-24T15:37:40.378Z,24.70
2022-09-24T15:40:17.226Z,25.20
2022-09-24T15:42:47.959Z,25.20
2022-09-24T15:45:18.510Z,25.70
2022-09-24T15:47:47.251Z,25.90
2022-09-24T15:50:16.594Z,25.70
2022-09-24T15:52:49.595Z,25.90
2022-09-24T15:55:20.101Z,26.00
2022-09-24T15:57:49.993Z,25.90
2022-09-24T16:00:20.598Z,26.40
2022-09-24T16:02:52.324Z,26.50
2022-09-24T16:05:21.100Z,26.80
2022-09-24T16:07:49.454Z,26.90
2022-09-24T16:10:18.860Z,27.00
2022-09-24T16:12:50.149Z,27.40
2022-09-24T16:15:18.937Z,27.30
2022-09-24T16:17:50.030Z,27.10
2022-09-24T16:20:18.558Z,27.50
2022-09-24T16:22:46.809Z,27.30
2022-09-24T16:25:15.456Z,27.30
2022-09-24T16:27:44.184Z,27.30
2022-09-24T16:30:14.379Z,27.40
2022-09-24T16:32:43.098Z,27.80
2022-09-24T16:35:14.512Z,27.60
2022-09-24T16:37:43.547Z,27.60
2022-09-24T16:40:13.597Z,27.70
2022-09-24T16:42:42.271Z,28.00
2022-09-24T16:45:14.212Z,28.20
2022-09-24T16:47:42.619Z,28.10
2022-09-24T16:50:11.678Z,28.50
2022-09-24T16:52:40.136Z,28.70
2022-09-24T16:55:10.014Z,28.50
2022-09-24T16:57:38.764Z,28.70
2022-09-24T17:00:09.059Z,29.00
2022-09-24T17:02:41.107Z,28.90
2022-09-24T17:05:10.242Z,29.10
2022-09-24T17:07:38.629Z,29.30
2022-09-24T17:10:16.365Z,29.70
2022-09-24T17:12:50.304Z,29.40
2022-09-24T17:15:21.837Z,29.30
2022-09-24T17:17:52.528Z,29.20
2022-09-24T17:20:21.341Z,29.40
2022-09-24T17:22:50.250Z,29.30
2022-09-24T17:25:21.614Z,29.50
2022-09-24T17:27:53.731Z,29.50
2022-09-24T17:30:23.124Z,29.30
2022-09-24T17:32:58.084Z,30.10
2022-09-24T17:35:27.617Z,29.90
2022-09-24T17:37:56.626Z,31.20
2022-09-24T17:40:26.876Z,31.60
2022-09-24T17:42:55.532Z,31.70
2022-09-24T17:45:26.244Z,31.80
2022-09-24T17:47:57.277Z,31.90
2022-09-24T17:50:28.700Z,32.00
2022-09-24T17:52:58.979Z,32.30
2022-09-24T17:55:27.513Z,32.20
2022-09-24T17:57:56.357Z,32.40
2022-09-24T18:00:25.869Z,32.40
2022-09-24T18:02:57.360Z,32.50
2022-09-24T18:05:26.492Z,33.20
2022-09-24T18:07:55.070Z,33.50
2022-09-24T18:10:24.272Z,33.50
2022-09-24T18:12:55.378Z,33.40
2022-09-24T18:15:25.865Z,33.70
2022-09-24T18:17:56.827Z,33.90
2022-09-24T18:20:27.224Z,34.10
2022-09-24T18:22:56.107Z,33.90
2022-09-24T18:25:24.854Z,34.00
2022-09-24T18:27:53.258Z,34.20
2022-09-24T18:30:22.417Z,34.20
2022-09-24T18:32:50.865Z,34.90
2022-09-24T18:35:19.566Z,34.70
2022-09-24T18:37:52.499Z,34.90
2022-09-24T18:40:22.135Z,34.90
2022-09-24T18:42:51.291Z,34.70
2022-09-24T18:45:19.698Z,35.40
2022-09-24T18:47:48.714Z,35.40
2022-09-24T18:50:17.893Z,35.60
2022-09-24T18:52:46.744Z,35.60
2022-09-24T18:55:17.022Z,36.00
2022-09-24T18:57:46.024Z,35.20
2022-09-24T19:00:35.252Z,35.10
2022-09-24T19:03:04.428Z,35.00
2022-09-24T19:05:34.979Z,35.10
2022-09-24T19:08:04.198Z,35.00
2022-09-24T19:10:35.106Z,35.00
2022-09-24T19:13:04.129Z,35.00
2022-09-24T19:15:35.476Z,35.10
2022-09-24T19:18:04.703Z,35.10
2022-09-24T19:20:33.770Z,35.20
2022-09-24T19:23:02.210Z,35.40
2022-09-24T19:25:35.454Z,35.50
2022-09-24T19:28:07.287Z,35.20
2022-09-24T19:30:40.981Z,34.80
2022-09-24T19:33:10.346Z,35.50
2022-09-24T19:35:39.099Z,35.50
2022-09-24T19:38:08.271Z,35.70
2022-09-24T19:40:38.335Z,35.70
2022-09-24T19:43:06.944Z,35.80
2022-09-24T19:45:35.645Z,36.00
2022-09-24T19:48:04.269Z,36.40
2022-09-24T19:50:34.416Z,36.50
2022-09-24T19:53:03.613Z,36.30
2022-09-24T19:55:32.405Z,36.50
2022-09-24T19:58:02.399Z,36.40
2022-09-24T20:00:31.454Z,36.70
2022-09-24T20:03:00.886Z,36.50
2022-09-24T20:05:29.626Z,36.70
2022-09-24T20:07:58.616Z,36.60
2022-09-24T20:10:27.260Z,36.50
2022-09-24T20:12:58.528Z,36.90
2022-09-24T20:15:29.692Z,37.10
2022-09-24T20:17:58.692Z,37.30
2022-09-24T20:20:27.224Z,37.60
2022-09-24T20:22:55.575Z,37.00
2022-09-24T20:25:44.615Z,37.30
2022-09-24T20:28:15.432Z,36.80
2022-09-24T20:30:45.542Z,37.00
2022-09-24T20:33:14.595Z,37.10
2022-09-24T20:35:43.652Z,36.80
2022-09-24T20:38:12.181Z,36.90
2022-09-24T20:40:42.776Z,37.20
2022-09-24T20:43:11.242Z,37.60
2022-09-24T20:45:42.050Z,37.10
2022-09-24T20:48:12.674Z,37.00
2022-09-24T20:50:41.231Z,37.60
2022-09-24T20:53:09.833Z,37.80
2022-09-24T20:55:40.374Z,38.10
2022-09-24T20:58:09.155Z,38.00
2022-09-24T21:00:48.517Z,38.30
2022-09-24T21:03:39.661Z,37.90
2022-09-24T21:06:08.867Z,37.80
2022-09-24T21:08:39.613Z,37.30
2022-09-24T21:11:11.139Z,37.20
2022-09-24T21:13:42.942Z,37.30
2022-09-24T21:16:12.606Z,38.00
2022-09-24T21:18:43.982Z,38.60
2022-09-24T21:21:15.755Z,38.30
2022-09-24T21:23:45.105Z,38.20
2022-09-24T21:26:18.540Z,38.30
2022-09-24T21:28:47.861Z,38.20
2022-09-24T21:31:18.671Z,38.10
2022-09-24T21:33:52.505Z,37.90
2022-09-24T21:36:24.493Z,37.80
2022-09-24T21:38:57.132Z,38.10
2022-09-24T21:41:28.893Z,37.40
2022-09-24T21:43:57.977Z,37.40
2022-09-24T21:46:28.634Z,37.20
2022-09-24T21:48:58.977Z,37.30
2022-09-24T21:51:30.332Z,37.20
2022-09-24T21:54:01.763Z,37.40
2022-09-24T21:56:32.115Z,38.40
2022-09-24T21:59:00.968Z,38.70
2022-09-24T22:01:34.100Z,38.40
2022-09-24T22:04:07.139Z,38.30
2022-09-24T22:06:36.774Z,38.40
2022-09-24T22:09:08.250Z,38.60
2022-09-24T22:11:37.978Z,38.60
2022-09-24T22:14:07.383Z,38.80
2022-09-24T22:16:37.218Z,39.00
2022-09-24T22:19:09.211Z,39.00
2022-09-24T22:21:38.144Z,38.80
2022-09-24T22:24:06.921Z,39.00
2022-09-24T22:26:35.530Z,38.70
2022-09-24T22:29:04.753Z,38.80
2022-09-24T22:31:34.581Z,38.60
2022-09-24T22:34:20.333Z,38.70
2022-09-24T22:36:51.554Z,38.70
2022-09-24T22:39:20.472Z,38.80
2022-09-24T22:41:48.952Z,39.80
2022-09-24T22:44:17.391Z,40.50
2022-09-24T22:46:46.007Z,40.80
2022-09-24T22:49:14.669Z,41.10
2022-09-24T22:51:43.095Z,41.50
2022-09-24T22:54:13.999Z,41.60
2022-09-24T22:56:42.495Z,41.70
2022-09-24T22:59:10.798Z,41.30
2022-09-24T23:01:41.989Z,41.80
2022-09-24T23:04:13.261Z,41.70
2022-09-24T23:06:42.271Z,41.30
2022-09-24T23:09:12.766Z,41.20
2022-09-24T23:11:41.657Z,41.70
2022-09-24T23:14:14.492Z,41.90
2022-09-24T23:16:43.829Z,41.60
2022-09-24T23:19:16.253Z,42.00
2022-09-24T23:21:45.788Z,42.20
2022-09-24T23:24:17.953Z,42.30
2022-09-24T23:26:47.660Z,42.70
2022-09-24T23:29:16.368Z,42.60
2022-09-24T23:31:45.487Z,42.40
2022-09-24T23:34:14.691Z,42.40
2022-09-24T23:36:45.194Z,42.60
2022-09-24T23:39:15.103Z,42.70
2022-09-24T23:41:44.551Z,42.40
2022-09-24T23:44:13.239Z,42.20
2022-09-24T23:46:42.170Z,41.90
2022-09-24T23:49:11.137Z,41.80
2022-09-24T23:51:39.640Z,41.70
2022-09-24T23:54:08.674Z,41.40
2022-09-24T23:56:39.238Z,41.50
2022-09-24T23:59:09.013Z,41.40
